Time,TemperatureF,DewpointF,PressureIn,WindDirection,WindDirectionDegrees,WindSpeedMPH,WindSpeedGustMPH,Humidity,HourlyPrecipIn,Conditions,Clouds,dailyrainin,SoftwareType,DateUTC
2013-04-01 00:00:00,48.1,42.2,29.97,West,280,0.0,0.0,80,0.00,,,0.00,Wunderground v.1.15,2013-04-01 07:00:00,
2013-04-01 00:05:00,47.9,42.0,29.97,West,280,0.0,0.0,80,0.00,,,0.00,Wunderground v.1.15,2013-04-01 07:05:00,
2013-04-01 00:09:00,47.6,41.7,29.97,West,280,0.0,0.0,80,0.00,,,0.00,Wunderground v.1.15,2013-04-01 07:09:00,
2013-04-01 00:20:00,47.3,41.8,29.97,West,280,0.0,0.0,81,0.00,,,0.00,Wunderground v.1.15,2013-04-01 07:20:00,
2013-04-01 00:24:00,47.2,41.7,29.97,West,280,0.0,0.0,81,0.00,,,0.00,Wunderground v.1.15,2013-04-01 07:24:00,
2013-04-01 00:30:00,46.9,41.4,29.97,West,280,0.0,0.0,81,0.00,,,0.00,Wunderground v.1.15,2013-04-01 07:30:00,
2013-04-01 00:35:00,46.7,41.2,29.97,West,280,0.0,0.0,81,0.00,,,0.00,Wunderground v.1.15,2013-04-01 07:35:00,
2013-04-01 00:40:00,46.6,41.1,29.97,West,280,0.0,0.0,81,0.00,,,0.00,Wunderground v.1.15,2013-04-01 07:40:00,
2013-04-01 00:45:00,46.5,41.0,29.97,West,280,0.0,0.0,81,0.00,,,0.00,Wunderground v.1.15,2013-04-01 07:45:00,
2013-04-01 00:55:00,46.2,41.0,29.97,West,280,0.0,0.0,82,0.00,,,0.00,Wunderground v.1.15,2013-04-01 07:55:00,
2013-04-01 00:59:00,46.0,40.8,29.98,West,280,0.0,0.0,82,0.00,,,0.00,Wunderground v.1.15,2013-04-01 07:59:00,
2013-04-01 01:10:00,45.7,40.8,29.98,West,280,0.0,0.0,83,0.00,,,0.00,Wunderground v.1.15,2013-04-01 08:10:00,
2013-04-01 01:15:00,45.7,40.8,29.98,West,280,0.0,0.0,83,0.00,,,0.00,Wunderground v.1.15,2013-04-01 08:15:00,
2013-04-01 01:20:00,45.6,40.7,29.98,West,280,0.0,0.0,83,0.00,,,0.00,Wunderground v.1.15,2013-04-01 08:20:00,
2013-04-01 01:25:00,45.6,40.7,29.98,West,280,0.0,0.0,83,0.00,,,0.00,Wunderground v.1.15,2013-04-01 08:25:00,
2013-04-01 01:30:00,45.4,40.5,29.98,West,280,0.0,0.0,83,0.00,,,0.00,Wunderground v.1.15,2013-04-01 08:30:00,
2013-04-01 01:35:00,45.3,40.4,29.98,West,280,0.0,0.0,83,0.00,,,0.00,Wunderground v.1.15,2013-04-01 08:35:00,
2013-04-01 01:40:00,45.1,40.2,29.98,West,280,0.0,0.0,83,0.00,,,0.00,Wunderground v.1.15,2013-04-01 08:40:00,
2013-04-01 01:45:00,45.0,40.1,29.99,West,280,0.0,0.0,83,0.00,,,0.00,Wunderground v.1.15,2013-04-01 08:45:00,
2013-04-01 01:55:00,44.7,40.2,29.99,West,280,0.0,0.0,84,0.00,,,0.00,Wunderground v.1.15,2013-04-01 08:55:00,
2013-04-01 02:00:00,44.7,40.2,29.99,West,280,0.0,0.0,84,0.00,,,0.00,Wunderground v.1.15,2013-04-01 09:00:00,
2013-04-01 02:10:00,44.4,39.9,29.99,West,280,0.0,0.0,84,0.00,,,0.00,Wunderground v.1.15,2013-04-01 09:10:00,
2013-04-01 02:15:00,44.4,39.9,29.99,West,280,0.0,0.0,84,0.00,,,0.00,Wunderground v.1.15,2013-04-01 09:15:00,
2013-04-01 02:25:00,44.1,39.6,29.99,West,280,0.0,0.0,84,0.00,,,0.00,Wunderground v.1.15,2013-04-01 09:25:00,
2013-04-01 02:35:00,43.8,39.3,29.99,West,280,0.0,0.0,84,0.00,,,0.00,Wunderground v.1.15,2013-04-01 09:35:00,
2013-04-01 02:40:00,43.8,39.3,29.99,West,280,0.0,0.0,84,0.00,,,0.00,Wunderground v.1.15,2013-04-01 09:40:00,
2013-04-01 02:44:00,43.7,39.5,30.00,West,280,0.0,0.0,85,0.00,,,0.00,Wunderground v.1.15,2013-04-01 09:44:00,
2013-04-01 02:50:00,43.6,39.4,30.00,West,280,0.0,0.0,85,0.00,,,0.00,Wunderground v.1.15,2013-04-01 09:50:00,
2013-04-01 02:55:00,43.4,39.2,30.00,West,280,0.0,0.0,85,0.00,,,0.00,Wunderground v.1.15,2013-04-01 09:55:00,
2013-04-01 03:00:00,43.3,39.1,30.00,West,280,0.0,0.0,85,0.00,,,0.00,Wunderground v.1.15,2013-04-01 10:00:00,
2013-04-01 03:10:00,43.1,39.2,30.00,West,280,0.0,0.0,86,0.00,,,0.00,Wunderground v.1.15,2013-04-01 10:10:00,
2013-04-01 03:14:00,43.0,39.1,30.00,West,280,0.0,0.0,86,0.00,,,0.00,Wunderground v.1.15,2013-04-01 10:14:00,
2013-04-01 03:20:00,43.0,39.1,30.00,West,280,0.0,0.0,86,0.00,,,0.00,Wunderground v.1.15,2013-04-01 10:20:00,
2013-04-01 03:24:00,42.8,38.9,30.00,West,280,0.0,0.0,86,0.00,,,0.00,Wunderground v.1.15,2013-04-01 10:24:00,
2013-04-01 03:30:00,42.8,38.9,30.00,West,280,0.0,0.0,86,0.00,,,0.00,Wunderground v.1.15,2013-04-01 10:30:00,
2013-04-01 03:39:00,42.6,38.7,30.00,West,280,0.0,0.0,86,0.00,,,0.00,Wunderground v.1.15,2013-04-01 10:39:00,
2013-04-01 03:44:00,42.6,38.7,30.01,West,280,0.0,0.0,86,0.00,,,0.00,Wunderground v.1.15,2013-04-01 10:44:00,
2013-04-01 03:50:00,42.4,38.8,30.01,West,280,0.0,0.0,87,0.00,,,0.00,Wunderground v.1.15,2013-04-01 10:50:00,
2013-04-01 03:54:00,42.4,38.8,30.01,West,280,0.0,0.0,87,0.00,,,0.00,Wunderground v.1.15,2013-04-01 10:54:00,
2013-04-01 04:00:00,42.4,38.8,30.01,West,280,0.0,0.0,87,0.00,,,0.00,Wunderground v.1.15,2013-04-01 11:00:00,
2013-04-01 04:05:00,42.3,38.7,30.01,West,280,0.0,0.0,87,0.00,,,0.00,Wunderground v.1.15,2013-04-01 11:05:00,
2013-04-01 04:10:00,42.1,38.5,30.01,West,280,0.0,0.0,87,0.00,,,0.00,Wunderground v.1.15,2013-04-01 11:10:00,
2013-04-01 04:20:00,41.8,38.2,30.01,West,280,0.0,0.0,87,0.00,,,0.00,Wunderground v.1.15,2013-04-01 11:20:00,
2013-04-01 04:25:00,41.8,38.2,30.01,West,280,0.0,0.0,87,0.00,,,0.00,Wunderground v.1.15,2013-04-01 11:25:00,
2013-04-01 04:34:00,41.4,37.8,30.01,West,280,0.0,0.0,87,0.00,,,0.00,Wunderground v.1.15,2013-04-01 11:34:00,
2013-04-01 04:40:00,41.3,37.7,30.01,West,280,0.0,0.0,87,0.00,,,0.00,Wunderground v.1.15,2013-04-01 11:40:00,
2013-04-01 04:44:00,41.1,37.5,30.01,West,280,0.0,0.0,87,0.00,,,0.00,Wunderground v.1.15,2013-04-01 11:44:00,
2013-04-01 04:50:00,41.1,37.5,30.01,West,280,0.0,0.0,87,0.00,,,0.00,Wunderground v.1.15,2013-04-01 11:50:00,
2013-04-01 05:00:00,40.8,37.2,30.01,West,280,0.0,0.0,87,0.00,,,0.00,Wunderground v.1.15,2013-04-01 12:00:00,
2013-04-01 05:05:00,40.8,37.2,30.01,West,280,0.0,0.0,87,0.00,,,0.00,Wunderground v.1.15,2013-04-01 12:05:00,
2013-04-01 05:10:00,40.7,37.1,30.01,West,280,0.0,0.0,87,0.00,,,0.00,Wunderground v.1.15,2013-04-01 12:10:00,
2013-04-01 05:15:00,40.7,37.1,30.01,West,280,0.0,0.0,87,0.00,,,0.00,Wunderground v.1.15,2013-04-01 12:15:00,
2013-04-01 05:19:00,40.6,37.3,30.01,West,280,0.0,0.0,88,0.00,,,0.00,Wunderground v.1.15,2013-04-01 12:19:00,
2013-04-01 05:24:00,40.6,37.3,30.01,West,280,0.0,0.0,88,0.00,,,0.00,Wunderground v.1.15,2013-04-01 12:24:00,
2013-04-01 05:30:00,40.4,37.1,30.01,West,280,0.0,0.0,88,0.00,,,0.00,Wunderground v.1.15,2013-04-01 12:30:00,
2013-04-01 05:45:00,40.3,37.0,30.02,West,280,0.0,0.0,88,0.00,,,0.00,Wunderground v.1.15,2013-04-01 12:45:00,
2013-04-01 05:50:00,40.1,36.8,30.02,West,280,0.0,0.0,88,0.00,,,0.00,Wunderground v.1.15,2013-04-01 12:50:00,
2013-04-01 05:55:00,40.1,37.1,30.02,West,280,0.0,0.0,89,0.00,,,0.00,Wunderground v.1.15,2013-04-01 12:55:00,
2013-04-01 06:05:00,40.1,37.1,30.02,West,280,0.0,0.0,89,0.00,,,0.00,Wunderground v.1.15,2013-04-01 13:05:00,
2013-04-01 06:09:00,40.1,37.1,30.02,West,280,0.0,0.0,89,0.00,,,0.00,Wunderground v.1.15,2013-04-01 13:09:00,
2013-04-01 06:14:00,40.0,37.0,30.02,West,280,0.0,0.0,89,0.00,,,0.00,Wunderground v.1.15,2013-04-01 13:14:00,
2013-04-01 06:20:00,40.0,37.0,30.02,West,280,0.0,0.0,89,0.00,,,0.00,Wunderground v.1.15,2013-04-01 13:20:00,
2013-04-01 06:30:00,39.7,36.4,30.03,West,280,0.0,0.0,88,0.00,,,0.00,Wunderground v.1.15,2013-04-01 13:30:00,
2013-04-01 06:35:00,39.7,36.4,30.03,West,280,0.0,0.0,88,0.00,,,0.00,Wunderground v.1.15,2013-04-01 13:35:00,
2013-04-01 06:39:00,39.6,36.3,30.03,West,280,0.0,0.0,88,0.00,,,0.00,Wunderground v.1.15,2013-04-01 13:39:00,
2013-04-01 06:45:00,39.4,36.1,30.03,West,280,0.0,0.0,88,0.00,,,0.00,Wunderground v.1.15,2013-04-01 13:45:00,
2013-04-01 06:50:00,39.4,36.1,30.03,West,280,0.0,0.0,88,0.00,,,0.00,Wunderground v.1.15,2013-04-01 13:50:00,
2013-04-01 06:55:00,39.4,36.4,30.03,West,280,0.0,0.0,89,0.00,,,0.00,Wunderground v.1.15,2013-04-01 13:55:00,
2013-04-01 07:00:00,39.3,36.0,30.04,West,280,0.0,0.0,88,0.00,,,0.00,Wunderground v.1.15,2013-04-01 14:00:00,
2013-04-01 07:05:00,39.3,36.0,30.04,West,280,0.0,0.0,88,0.00,,,0.00,Wunderground v.1.15,2013-04-01 14:05:00,
2013-04-01 07:10:00,39.1,36.1,30.04,West,280,0.0,0.0,89,0.00,,,0.00,Wunderground v.1.15,2013-04-01 14:10:00,
2013-04-01 07:15:00,39.1,36.1,30.04,West,280,0.0,0.0,89,0.00,,,0.00,Wunderground v.1.15,2013-04-01 14:15:00,
2013-04-01 07:24:00,39.3,36.3,30.04,West,280,0.0,0.0,89,0.00,,,0.00,Wunderground v.1.15,2013-04-01 14:24:00,
2013-04-01 07:30:00,39.3,36.6,30.05,West,280,0.0,0.0,90,0.00,,,0.00,Wunderground v.1.15,2013-04-01 14:30:00,
2013-04-01 07:35:00,39.1,36.4,30.05,West,280,0.0,0.0,90,0.00,,,0.00,Wunderground v.1.15,2013-04-01 14:35:00,
2013-04-01 07:45:00,39.1,36.4,30.05,West,280,0.0,0.0,90,0.00,,,0.00,Wunderground v.1.15,2013-04-01 14:45:00,
2013-04-01 07:50:00,39.3,36.6,30.05,West,280,0.0,0.0,90,0.00,,,0.00,Wunderground v.1.15,2013-04-01 14:50:00,
2013-04-01 07:59:00,39.6,36.9,30.05,West,280,0.0,0.0,90,0.00,,,0.00,Wunderground v.1.15,2013-04-01 14:59:00,
2013-04-01 08:04:00,39.7,37.3,30.05,West,280,0.0,0.0,91,0.00,,,0.00,Wunderground v.1.15,2013-04-01 15:04:00,
2013-04-01 08:10:00,40.1,37.7,30.05,West,280,0.0,0.0,91,0.00,,,0.00,Wunderground v.1.15,2013-04-01 15:10:00,
2013-04-01 08:19:00,40.7,38.6,30.06,West,280,0.0,0.0,92,0.00,,,0.00,Wunderground v.1.15,2013-04-01 15:19:00,
2013-04-01 08:25:00,41.1,39.0,30.06,West,280,0.0,0.0,92,0.00,,,0.00,Wunderground v.1.15,2013-04-01 15:25:00,
2013-04-01 08:30:00,41.3,39.2,30.06,West,280,0.0,0.0,92,0.00,,,0.00,Wunderground v.1.15,2013-04-01 15:30:00,
2013-04-01 08:34:00,41.6,39.4,30.06,West,280,0.0,0.0,92,0.00,,,0.00,Wunderground v.1.15,2013-04-01 15:34:00,
2013-04-01 08:40:00,42.0,39.8,30.06,West,280,0.0,0.0,92,0.00,,,0.00,Wunderground v.1.15,2013-04-01 15:40:00,
2013-04-01 08:50:00,43.0,40.8,30.06,West,280,0.0,0.0,92,0.00,,,0.00,Wunderground v.1.15,2013-04-01 15:50:00,
2013-04-01 08:54:00,43.6,41.4,30.06,West,280,0.0,0.0,92,0.00,,,0.00,Wunderground v.1.15,2013-04-01 15:54:00,
2013-04-01 09:00:00,44.1,41.9,30.07,West,280,0.0,0.0,92,0.00,,,0.00,Wunderground v.1.15,2013-04-01 16:00:00,
2013-04-01 09:04:00,44.7,42.2,30.07,West,280,0.0,0.0,91,0.00,,,0.00,Wunderground v.1.15,2013-04-01 16:04:00,
2013-04-01 09:10:00,45.3,42.5,30.07,West,280,0.0,0.0,90,0.00,,,0.00,Wunderground v.1.15,2013-04-01 16:10:00,
2013-04-01 09:14:00,45.7,42.1,30.07,WNW,282,0.0,0.0,87,0.00,,,0.00,Wunderground v.1.15,2013-04-01 16:14:00,
2013-04-01 09:20:00,46.3,42.6,30.07,WNW,282,0.0,0.0,87,0.00,,,0.00,Wunderground v.1.15,2013-04-01 16:20:00,
2013-04-01 09:25:00,46.9,42.6,30.07,WNW,282,0.0,0.0,85,0.00,,,0.00,Wunderground v.1.15,2013-04-01 16:25:00,
2013-04-01 09:30:00,47.5,43.2,30.07,SE,142,0.0,0.0,85,0.00,,,0.00,Wunderground v.1.15,2013-04-01 16:30:00,
2013-04-01 09:40:00,48.7,43.8,30.07,SSE,155,1.0,1.0,83,0.00,,,0.00,Wunderground v.1.15,2013-04-01 16:40:00,
2013-04-01 09:50:00,49.4,44.1,30.08,SE,138,1.0,1.0,82,0.00,,,0.00,Wunderground v.1.15,2013-04-01 16:50:00,
2013-04-01 09:55:00,49.9,44.3,30.08,SE,134,1.0,1.0,81,0.00,,,0.00,Wunderground v.1.15,2013-04-01 16:55:00,
2013-04-01 09:59:00,50.1,44.5,30.08,SE,136,1.0,1.0,81,0.00,,,0.00,Wunderground v.1.15,2013-04-01 16:59:00,
2013-04-01 10:04:00,50.3,44.7,30.08,South,180,1.0,1.0,81,0.00,,,0.00,Wunderground v.1.15,2013-04-01 17:04:00,
2013-04-01 10:10:00,50.4,44.5,30.08,SSE,161,0.0,0.0,80,0.00,,,0.00,Wunderground v.1.15,2013-04-01 17:10:00,
2013-04-01 10:20:00,51.2,44.9,30.08,ESE,110,0.0,0.0,79,0.00,,,0.00,Wunderground v.1.15,2013-04-01 17:20:00,
2013-04-01 10:30:00,51.9,45.3,30.08,SE,126,0.0,0.0,78,0.00,,,0.00,Wunderground v.1.15,2013-04-01 17:30:00,
2013-04-01 10:40:00,52.7,45.7,30.08,SSE,151,0.0,0.0,77,0.00,,,0.00,Wunderground v.1.15,2013-04-01 17:40:00,
2013-04-01 10:44:00,52.8,45.4,30.08,SSE,162,1.0,1.0,76,0.00,,,0.00,Wunderground v.1.15,2013-04-01 17:44:00,
2013-04-01 10:50:00,53.1,45.7,30.08,WSW,237,0.0,2.0,76,0.00,,,0.00,Wunderground v.1.15,2013-04-01 17:50:00,
2013-04-01 10:55:00,53.6,46.2,30.08,SE,146,0.0,2.0,76,0.00,,,0.00,Wunderground v.1.15,2013-04-01 17:55:00,
2013-04-01 11:00:00,53.8,46.4,30.08,SE,132,0.0,4.0,76,0.00,,,0.00,Wunderground v.1.15,2013-04-01 18:00:00,
2013-04-01 11:05:00,54.1,46.3,30.08,SSE,168,0.0,4.0,75,0.00,,,0.00,Wunderground v.1.15,2013-04-01 18:05:00,
2013-04-01 11:10:00,54.4,46.3,30.08,South,171,1.0,1.0,74,0.00,,,0.00,Wunderground v.1.15,2013-04-01 18:10:00,
2013-04-01 11:19:00,55.0,46.9,30.08,SE,136,0.0,5.0,74,0.00,,,0.00,Wunderground v.1.15,2013-04-01 18:19:00,
2013-04-01 11:25:00,55.5,47.3,30.08,SE,141,1.0,5.0,74,0.00,,,0.00,Wunderground v.1.15,2013-04-01 18:25:00,
2013-04-01 11:35:00,56.1,47.6,30.08,SE,145,1.0,1.0,73,0.00,,,0.00,Wunderground v.1.15,2013-04-01 18:35:00,
2013-04-01 11:44:00,56.5,47.6,30.08,SSE,147,0.0,3.0,72,0.00,,,0.00,Wunderground v.1.15,2013-04-01 18:44:00,
2013-04-01 11:50:00,57.0,47.7,30.08,SE,136,1.0,2.0,71,0.00,,,0.00,Wunderground v.1.15,2013-04-01 18:50:00,
2013-04-01 11:55:00,57.1,47.4,30.08,ESE,123,1.0,2.0,70,0.00,,,0.00,Wunderground v.1.15,2013-04-01 18:55:00,
2013-04-01 12:04:00,57.5,47.4,30.08,SSE,148,1.0,4.0,69,0.00,,,0.00,Wunderground v.1.15,2013-04-01 19:04:00,
2013-04-01 12:10:00,57.8,46.9,30.08,SSE,148,1.0,1.0,67,0.00,,,0.00,Wunderground v.1.15,2013-04-01 19:10:00,
2013-04-01 12:20:00,58.5,47.6,30.09,North,360,1.0,1.0,67,0.00,,,0.00,Wunderground v.1.15,2013-04-01 19:20:00,
2013-04-01 12:29:00,59.1,48.1,30.08,SSE,160,1.0,3.0,67,0.00,,,0.00,Wunderground v.1.15,2013-04-01 19:29:00,
2013-04-01 12:34:00,59.2,47.4,30.08,ESE,105,1.0,3.0,65,0.00,,,0.00,Wunderground v.1.15,2013-04-01 19:34:00,
2013-04-01 12:40:00,59.2,47.8,30.08,SSE,162,2.0,2.0,66,0.00,,,0.00,Wunderground v.1.15,2013-04-01 19:40:00,
2013-04-01 12:45:00,59.4,48.0,30.08,NNE,17,2.0,5.0,66,0.00,,,0.00,Wunderground v.1.15,2013-04-01 19:45:00,
2013-04-01 12:49:00,59.5,48.1,30.08,SSW,202,1.0,1.0,66,0.00,,,0.00,Wunderground v.1.15,2013-04-01 19:49:00,
2013-04-01 12:55:00,59.8,48.0,30.08,NNE,25,1.0,1.0,65,0.00,,,0.00,Wunderground v.1.15,2013-04-01 19:55:00,
2013-04-01 13:04:00,60.1,48.7,30.08,SSE,157,1.0,1.0,66,0.00,,,0.00,Wunderground v.1.15,2013-04-01 20:04:00,
2013-04-01 13:10:00,60.4,49.0,30.08,South,175,1.0,1.0,66,0.00,,,0.00,Wunderground v.1.15,2013-04-01 20:10:00,
2013-04-01 13:15:00,60.4,48.6,30.08,NE,55,1.0,1.0,65,0.00,,,0.00,Wunderground v.1.15,2013-04-01 20:15:00,
2013-04-01 13:20:00,60.1,49.1,30.08,SSW,198,1.0,1.0,67,0.00,,,0.00,Wunderground v.1.15,2013-04-01 20:20:00,
2013-04-01 13:25:00,60.1,49.1,30.08,SE,142,1.0,1.0,67,0.00,,,0.00,Wunderground v.1.15,2013-04-01 20:25:00,
2013-04-01 13:35:00,60.1,48.3,30.08,SSW,207,1.0,2.0,65,0.00,,,0.00,Wunderground v.1.15,2013-04-01 20:35:00,
2013-04-01 13:45:00,59.5,48.1,30.08,SSW,198,1.0,1.0,66,0.00,,,0.00,Wunderground v.1.15,2013-04-01 20:45:00,
2013-04-01 13:49:00,59.7,48.7,30.08,NE,49,1.0,1.0,67,0.00,,,0.00,Wunderground v.1.15,2013-04-01 20:49:00,
2013-04-01 13:54:00,60.0,48.2,30.08,SSW,202,1.0,2.0,65,0.00,,,0.00,Wunderground v.1.15,2013-04-01 20:54:00,
2013-04-01 14:00:00,60.1,48.7,30.08,SE,145,1.0,1.0,66,0.00,,,0.00,Wunderground v.1.15,2013-04-01 21:00:00,
2013-04-01 14:05:00,60.6,49.2,30.08,SSE,163,1.0,6.0,66,0.00,,,0.00,Wunderground v.1.15,2013-04-01 21:05:00,
2013-04-01 14:09:00,60.6,48.4,30.08,West,266,2.0,2.0,64,0.00,,,0.00,Wunderground v.1.15,2013-04-01 21:09:00,
2013-04-01 14:14:00,60.6,48.4,30.08,NE,43,1.0,2.0,64,0.00,,,0.00,Wunderground v.1.15,2013-04-01 21:14:00,
2013-04-01 14:20:00,60.7,48.9,30.08,NE,55,1.0,1.0,65,0.00,,,0.00,Wunderground v.1.15,2013-04-01 21:20:00,
2013-04-01 14:24:00,60.7,48.9,30.08,East,91,1.0,1.0,65,0.00,,,0.00,Wunderground v.1.15,2013-04-01 21:24:00,
2013-04-01 14:30:00,60.7,48.9,30.08,South,172,1.0,1.0,65,0.00,,,0.00,Wunderground v.1.15,2013-04-01 21:30:00,
2013-04-01 14:34:00,60.7,48.9,30.08,SSE,150,1.0,1.0,65,0.00,,,0.00,Wunderground v.1.15,2013-04-01 21:34:00,
2013-04-01 14:40:00,60.9,48.6,30.08,WSW,257,1.0,1.0,64,0.00,,,0.00,Wunderground v.1.15,2013-04-01 21:40:00,
2013-04-01 14:44:00,61.2,48.5,30.08,SE,144,1.0,1.0,63,0.00,,,0.00,Wunderground v.1.15,2013-04-01 21:44:00,
2013-04-01 14:50:00,61.2,48.9,30.08,ENE,62,2.0,2.0,64,0.00,,,0.00,Wunderground v.1.15,2013-04-01 21:50:00,
2013-04-01 14:59:00,61.0,48.3,30.08,North,350,1.0,3.0,63,0.00,,,0.00,Wunderground v.1.15,2013-04-01 21:59:00,
2013-04-01 15:04:00,61.0,48.3,30.08,NNW,348,0.0,3.0,63,0.00,,,0.00,Wunderground v.1.15,2013-04-01 22:04:00,
2013-04-01 15:10:00,60.7,48.0,30.08,SW,218,1.0,2.0,63,0.00,,,0.00,Wunderground v.1.15,2013-04-01 22:10:00,
2013-04-01 15:15:00,60.6,48.4,30.08,SW,232,1.0,2.0,64,0.00,,,0.00,Wunderground v.1.15,2013-04-01 22:15:00,
2013-04-01 15:19:00,60.6,48.4,30.08,ESE,112,1.0,1.0,64,0.00,,,0.00,Wunderground v.1.15,2013-04-01 22:19:00,
2013-04-01 15:24:00,60.6,48.4,30.08,South,171,1.0,2.0,64,0.00,,,0.00,Wunderground v.1.15,2013-04-01 22:24:00,
2013-04-01 15:30:00,60.4,47.7,30.08,SE,130,1.0,1.0,63,0.00,,,0.00,Wunderground v.1.15,2013-04-01 22:30:00,
2013-04-01 15:35:00,60.4,47.7,30.08,ESE,118,1.0,1.0,63,0.00,,,0.00,Wunderground v.1.15,2013-04-01 22:35:00,
2013-04-01 15:40:00,60.3,48.5,30.08,SSW,194,0.0,0.0,65,0.00,,,0.00,Wunderground v.1.15,2013-04-01 22:40:00,
2013-04-01 15:45:00,60.4,48.2,30.08,SSE,148,1.0,1.0,64,0.00,,,0.00,Wunderground v.1.15,2013-04-01 22:45:00,
2013-04-01 15:49:00,60.4,48.2,30.08,South,173,1.0,1.0,64,0.00,,,0.00,Wunderground v.1.15,2013-04-01 22:49:00,
2013-04-01 15:55:00,60.4,48.2,30.08,SSW,205,1.0,1.0,64,0.00,,,0.00,Wunderground v.1.15,2013-04-01 22:55:00,
2013-04-01 15:59:00,60.4,47.7,30.08,SSW,194,0.0,0.0,63,0.00,,,0.00,Wunderground v.1.15,2013-04-01 22:59:00,
2013-04-01 16:05:00,60.4,48.2,30.08,SSW,200,1.0,1.0,64,0.00,,,0.00,Wunderground v.1.15,2013-04-01 23:05:00,
2013-04-01 16:10:00,60.4,47.7,30.08,NNE,32,1.0,1.0,63,0.00,,,0.00,Wunderground v.1.15,2013-04-01 23:10:00,
2013-04-01 16:14:00,60.4,48.2,30.08,SSE,163,1.0,1.0,64,0.00,,,0.00,Wunderground v.1.15,2013-04-01 23:14:00,
2013-04-01 16:20:00,60.6,47.9,30.08,ESE,123,1.0,4.0,63,0.00,,,0.00,Wunderground v.1.15,2013-04-01 23:20:00,
2013-04-01 16:24:00,60.6,48.4,30.08,NNE,23,1.0,4.0,64,0.00,,,0.00,Wunderground v.1.15,2013-04-01 23:24:00,
2013-04-01 16:30:00,60.3,47.6,30.08,NW,307,1.0,1.0,63,0.00,,,0.00,Wunderground v.1.15,2013-04-01 23:30:00,
2013-04-01 16:35:00,60.3,48.1,30.08,West,277,0.0,1.0,64,0.00,,,0.00,Wunderground v.1.15,2013-04-01 23:35:00,
2013-04-01 16:40:00,60.3,47.6,30.08,SSE,157,0.0,1.0,63,0.00,,,0.00,Wunderground v.1.15,2013-04-01 23:40:00,
2013-04-01 16:44:00,60.4,47.7,30.08,WSW,258,1.0,1.0,63,0.00,,,0.00,Wunderground v.1.15,2013-04-01 23:44:00,
2013-04-01 16:50:00,60.4,48.2,30.08,WSW,242,1.0,1.0,64,0.00,,,0.00,Wunderground v.1.15,2013-04-01 23:50:00,
2013-04-01 17:00:00,60.6,47.9,30.08,SSW,192,0.0,0.0,63,0.00,,,0.00,Wunderground v.1.15,2013-04-02 00:00:00,
2013-04-01 17:05:00,60.6,47.9,30.08,SSE,150,1.0,2.0,63,0.00,,,0.00,Wunderground v.1.15,2013-04-02 00:05:00,
2013-04-01 17:09:00,60.4,47.7,30.08,SSE,161,1.0,5.0,63,0.00,,,0.00,Wunderground v.1.15,2013-04-02 00:09:00,
2013-04-01 17:15:00,60.4,47.7,30.08,South,189,1.0,5.0,63,0.00,,,0.00,Wunderground v.1.15,2013-04-02 00:15:00,
2013-04-01 17:24:00,60.3,48.1,30.08,SE,140,1.0,1.0,64,0.00,,,0.00,Wunderground v.1.15,2013-04-02 00:24:00,
2013-04-01 17:30:00,60.3,47.6,30.08,SSE,160,1.0,1.0,63,0.00,,,0.00,Wunderground v.1.15,2013-04-02 00:30:00,
2013-04-01 17:35:00,60.3,47.6,30.08,SSE,161,0.0,1.0,63,0.00,,,0.00,Wunderground v.1.15,2013-04-02 00:35:00,
2013-04-01 17:39:00,60.3,48.1,30.08,SSE,155,0.0,1.0,64,0.00,,,0.00,Wunderground v.1.15,2013-04-02 00:39:00,
2013-04-01 17:44:00,60.1,48.3,30.08,WSW,257,0.0,1.0,65,0.00,,,0.00,Wunderground v.1.15,2013-04-02 00:44:00,
2013-04-01 17:50:00,60.1,47.9,30.08,SSE,155,1.0,1.0,64,0.00,,,0.00,Wunderground v.1.15,2013-04-02 00:50:00,
2013-04-01 17:54:00,60.0,48.2,30.08,WSW,238,1.0,1.0,65,0.00,,,0.00,Wunderground v.1.15,2013-04-02 00:54:00,
2013-04-01 18:00:00,60.0,48.2,30.08,SSE,164,0.0,1.0,65,0.00,,,0.00,Wunderground v.1.15,2013-04-02 01:00:00,
2013-04-01 18:05:00,60.0,48.2,30.08,SSE,153,1.0,1.0,65,0.00,,,0.00,Wunderground v.1.15,2013-04-02 01:05:00,
2013-04-01 18:09:00,60.0,48.2,30.08,SSE,153,0.0,0.0,65,0.00,,,0.00,Wunderground v.1.15,2013-04-02 01:09:00,
2013-04-01 18:15:00,60.1,48.3,30.08,SW,218,0.0,0.0,65,0.00,,,0.00,Wunderground v.1.15,2013-04-02 01:15:00,
2013-04-01 18:19:00,60.1,48.3,30.08,South,186,0.0,0.0,65,0.00,,,0.00,Wunderground v.1.15,2013-04-02 01:19:00,
2013-04-01 18:24:00,60.0,48.2,30.08,South,186,0.0,0.0,65,0.00,,,0.00,Wunderground v.1.15,2013-04-02 01:24:00,
2013-04-01 18:30:00,60.0,48.2,30.08,South,176,0.0,0.0,65,0.00,,,0.00,Wunderground v.1.15,2013-04-02 01:30:00,
2013-04-01 18:34:00,59.8,48.0,30.08,South,176,0.0,0.0,65,0.00,,,0.00,Wunderground v.1.15,2013-04-02 01:34:00,
2013-04-01 18:40:00,59.8,48.4,30.08,South,176,0.0,0.0,66,0.00,,,0.00,Wunderground v.1.15,2013-04-02 01:40:00,
2013-04-01 18:45:00,59.7,48.3,30.09,South,176,0.0,0.0,66,0.00,,,0.00,Wunderground v.1.15,2013-04-02 01:45:00,
2013-04-01 18:49:00,59.5,48.5,30.09,South,176,0.0,0.0,67,0.00,,,0.00,Wunderground v.1.15,2013-04-02 01:49:00,
2013-04-01 18:55:00,59.4,48.4,30.09,South,176,0.0,0.0,67,0.00,,,0.00,Wunderground v.1.15,2013-04-02 01:55:00,
2013-04-01 19:00:00,59.2,48.6,30.09,South,176,0.0,0.0,68,0.00,,,0.00,Wunderground v.1.15,2013-04-02 02:00:00,
2013-04-01 19:04:00,59.1,48.5,30.09,South,176,0.0,0.0,68,0.00,,,0.00,Wunderground v.1.15,2013-04-02 02:04:00,
2013-04-01 19:10:00,58.9,48.7,30.09,South,176,0.0,0.0,69,0.00,,,0.00,Wunderground v.1.15,2013-04-02 02:10:00,
2013-04-01 19:15:00,58.6,48.5,30.10,South,176,0.0,0.0,69,0.00,,,0.00,Wunderground v.1.15,2013-04-02 02:15:00,
2013-04-01 19:24:00,58.3,48.6,30.10,South,176,0.0,0.0,70,0.00,,,0.00,Wunderground v.1.15,2013-04-02 02:24:00,
2013-04-01 19:30:00,58.0,48.3,30.10,South,176,0.0,0.0,70,0.00,,,0.00,Wunderground v.1.15,2013-04-02 02:30:00,
2013-04-01 19:35:00,57.8,48.1,30.10,South,176,0.0,0.0,70,0.00,,,0.00,Wunderground v.1.15,2013-04-02 02:35:00,
2013-04-01 19:45:00,57.4,48.1,30.10,South,176,0.0,0.0,71,0.00,,,0.00,Wunderground v.1.15,2013-04-02 02:45:00,
2013-04-01 19:50:00,57.2,47.9,30.10,South,176,0.0,0.0,71,0.00,,,0.00,Wunderground v.1.15,2013-04-02 02:50:00,
2013-04-01 19:55:00,57.0,48.1,30.10,South,176,0.0,0.0,72,0.00,,,0.00,Wunderground v.1.15,2013-04-02 02:55:00,
2013-04-01 20:00:00,56.5,47.6,30.10,South,176,0.0,0.0,72,0.00,,,0.00,Wunderground v.1.15,2013-04-02 03:00:00,
2013-04-01 20:09:00,55.9,47.4,30.10,South,176,0.0,0.0,73,0.00,,,0.00,Wunderground v.1.15,2013-04-02 03:09:00,
2013-04-01 20:15:00,55.5,47.0,30.11,South,176,0.0,0.0,73,0.00,,,0.00,Wunderground v.1.15,2013-04-02 03:15:00,
2013-04-01 20:25:00,54.9,46.8,30.11,South,176,0.0,0.0,74,0.00,,,0.00,Wunderground v.1.15,2013-04-02 03:25:00,
2013-04-01 20:30:00,54.6,46.5,30.11,South,176,0.0,0.0,74,0.00,,,0.00,Wunderground v.1.15,2013-04-02 03:30:00,
2013-04-01 20:35:00,54.4,46.3,30.11,South,176,0.0,0.0,74,0.00,,,0.00,Wunderground v.1.15,2013-04-02 03:35:00,
2013-04-01 20:40:00,54.3,46.2,30.11,South,176,0.0,0.0,74,0.00,,,0.00,Wunderground v.1.15,2013-04-02 03:40:00,
2013-04-01 20:45:00,54.0,45.9,30.11,South,176,0.0,0.0,74,0.00,,,0.00,Wunderground v.1.15,2013-04-02 03:45:00,
2013-04-01 20:50:00,53.8,45.7,30.11,South,176,0.0,0.0,74,0.00,,,0.00,Wunderground v.1.15,2013-04-02 03:50:00,
2013-04-01 20:54:00,53.6,45.5,30.11,South,176,0.0,0.0,74,0.00,,,0.00,Wunderground v.1.15,2013-04-02 03:54:00,
2013-04-01 21:00:00,53.4,45.7,30.11,South,176,0.0,0.0,75,0.00,,,0.00,Wunderground v.1.15,2013-04-02 04:00:00,
2013-04-01 21:05:00,53.1,45.4,30.11,South,176,0.0,0.0,75,0.00,,,0.00,Wunderground v.1.15,2013-04-02 04:05:00,
2013-04-01 21:15:00,52.7,45.0,30.12,South,176,0.0,0.0,75,0.00,,,0.00,Wunderground v.1.15,2013-04-02 04:15:00,
2013-04-01 21:20:00,52.5,45.2,30.12,South,176,0.0,0.0,76,0.00,,,0.00,Wunderground v.1.15,2013-04-02 04:20:00,
2013-04-01 21:25:00,52.2,44.9,30.12,South,176,0.0,0.0,76,0.00,,,0.00,Wunderground v.1.15,2013-04-02 04:25:00,
2013-04-01 21:30:00,52.1,45.1,30.12,South,176,0.0,0.0,77,0.00,,,0.00,Wunderground v.1.15,2013-04-02 04:30:00,
2013-04-01 21:35:00,51.9,45.3,30.12,South,176,0.0,0.0,78,0.00,,,0.00,Wunderground v.1.15,2013-04-02 04:35:00,
2013-04-01 21:44:00,51.6,45.3,30.13,South,176,0.0,0.0,79,0.00,,,0.00,Wunderground v.1.15,2013-04-02 04:44:00,
2013-04-01 21:50:00,51.5,45.5,30.13,South,176,0.0,0.0,80,0.00,,,0.00,Wunderground v.1.15,2013-04-02 04:50:00,
2013-04-01 21:59:00,51.2,45.6,30.13,South,176,0.0,0.0,81,0.00,,,0.00,Wunderground v.1.15,2013-04-02 04:59:00,
2013-04-01 22:04:00,50.9,45.6,30.13,South,176,0.0,0.0,82,0.00,,,0.00,Wunderground v.1.15,2013-04-02 05:04:00,
2013-04-01 22:10:00,50.7,45.4,30.13,South,176,0.0,0.0,82,0.00,,,0.00,Wunderground v.1.15,2013-04-02 05:10:00,
2013-04-01 22:15:00,50.6,45.3,30.13,South,176,0.0,0.0,82,0.00,,,0.00,Wunderground v.1.15,2013-04-02 05:15:00,
2013-04-01 22:20:00,50.4,45.4,30.13,South,176,0.0,0.0,83,0.00,,,0.00,Wunderground v.1.15,2013-04-02 05:20:00,
2013-04-01 22:25:00,50.3,45.3,30.13,South,176,0.0,0.0,83,0.00,,,0.00,Wunderground v.1.15,2013-04-02 05:25:00,
2013-04-01 22:30:00,50.3,45.6,30.14,South,176,0.0,0.0,84,0.00,,,0.00,Wunderground v.1.15,2013-04-02 05:30:00,
2013-04-01 22:35:00,50.1,45.5,30.14,South,176,0.0,0.0,84,0.00,,,0.00,Wunderground v.1.15,2013-04-02 05:35:00,
2013-04-01 22:44:00,50.1,45.5,30.14,South,176,0.0,0.0,84,0.00,,,0.00,Wunderground v.1.15,2013-04-02 05:44:00,
2013-04-01 22:50:00,50.1,45.5,30.14,South,176,0.0,0.0,84,0.00,,,0.00,Wunderground v.1.15,2013-04-02 05:50:00,
2013-04-01 22:54:00,50.1,45.5,30.14,South,176,0.0,0.0,84,0.00,,,0.00,Wunderground v.1.15,2013-04-02 05:54:00,
2013-04-01 23:00:00,50.1,45.5,30.14,South,176,0.0,0.0,84,0.00,,,0.00,Wunderground v.1.15,2013-04-02 06:00:00,
2013-04-01 23:05:00,50.1,45.5,30.14,South,176,0.0,0.0,84,0.00,,,0.00,Wunderground v.1.15,2013-04-02 06:05:00,
2013-04-01 23:09:00,50.1,45.5,30.14,South,176,0.0,0.0,84,0.00,,,0.00,Wunderground v.1.15,2013-04-02 06:09:00,
2013-04-01 23:15:00,50.1,45.8,30.14,South,176,0.0,0.0,85,0.00,,,0.00,Wunderground v.1.15,2013-04-02 06:15:00,
2013-04-01 23:20:00,50.1,45.8,30.14,South,176,0.0,0.0,85,0.00,,,0.00,Wunderground v.1.15,2013-04-02 06:20:00,
2013-04-01 23:25:00,50.1,45.8,30.14,South,176,0.0,0.0,85,0.00,,,0.00,Wunderground v.1.15,2013-04-02 06:25:00,
2013-04-01 23:29:00,50.1,45.8,30.14,South,176,0.0,0.0,85,0.00,,,0.00,Wunderground v.1.15,2013-04-02 06:29:00,
2013-04-01 23:35:00,50.1,45.8,30.14,South,176,0.0,0.0,85,0.00,,,0.00,Wunderground v.1.15,2013-04-02 06:35:00,
2013-04-01 23:39:00,50.1,45.8,30.14,South,176,0.0,0.0,85,0.00,,,0.00,Wunderground v.1.15,2013-04-02 06:39:00,
2013-04-01 23:45:00,50.1,45.5,30.15,South,176,0.0,0.0,84,0.00,,,0.00,Wunderground v.1.15,2013-04-02 06:45:00,
2013-04-01 23:49:00,50.1,45.5,30.15,South,176,0.0,0.0,84,0.00,,,0.00,Wunderground v.1.15,2013-04-02 06:49:00,
2013-04-01 23:54:00,50.1,45.5,30.15,South,176,0.0,0.0,84,0.00,,,0.00,Wunderground v.1.15,2013-04-02 06:54:00,